Time;durP1;ratioP1;P1;durP2;ratioP2;P2;SDS_P1;SDS_P2;PMS_P1;PMS_P2;Temp;Humidity;BMP_temperature;BMP_pressure;BME280_temperature;BME280_humidity;BME280_pressure;Samples;Min_cycle;Max_cycle;Signal;HPM_P1;HPM_P2
2023/09/23 00:00:37;;;;;;;7.53;3.67;;;18.00;99.90;;;;;;5015400;28;20037;-76
2023/09/23 00:03:04;;;;;;;6.45;3.58;;;18.00;99.90;;;;;;5014698;28;20018;-76
2023/09/23 00:05:33;;;;;;;7.95;3.15;;;18.00;99.90;;;;;;5014243;28;20669;-77
2023/09/23 00:07:58;;;;;;;5.72;3.00;;;18.00;99.90;;;;;;5015179;28;20416;-76
2023/09/23 00:10:24;;;;;;;8.52;3.72;;;18.00;99.90;;;;;;5013174;28;20033;-77
2023/09/23 00:12:50;;;;;;;6.82;3.78;;;18.00;99.90;;;;;;5015308;28;20058;-77
2023/09/23 00:15:16;;;;;;;5.38;3.53;;;18.00;99.90;;;;;;5015032;28;20053;-77
2023/09/23 00:17:45;;;;;;;6.55;2.78;;;18.00;99.90;;;;;;5014286;28;20565;-76
2023/09/23 00:20:17;;;;;;;4.35;3.03;;;18.10;99.90;;;;;;5014404;28;20026;-77
2023/09/23 00:22:46;;;;;;;11.75;3.30;;;18.10;99.90;;;;;;5014631;28;20025;-77
2023/09/23 00:25:13;;;;;;;5.72;3.53;;;18.10;99.90;;;;;;5014022;28;20044;-78
2023/09/23 00:27:41;;;;;;;5.72;2.97;;;18.10;99.90;;;;;;5015920;28;20090;-78
2023/09/23 00:30:07;;;;;;;11.75;4.38;;;18.10;99.90;;;;;;5018964;28;20033;-77
2023/09/23 00:32:34;;;;;;;9.35;3.33;;;18.00;99.90;;;;;;5019394;28;20488;-77
2023/09/23 00:35:00;;;;;;;4.88;2.47;;;18.10;99.90;;;;;;5019250;28;20026;-77
2023/09/23 00:37:27;;;;;;;3.25;1.30;;;18.00;99.90;;;;;;5019243;28;20051;-79
2023/09/23 00:39:53;;;;;;;2.35;1.40;;;17.90;99.90;;;;;;5018459;28;20022;-79
2023/09/23 00:42:19;;;;;;;2.55;1.40;;;18.00;99.90;;;;;;5041134;23;20484;-82
2023/09/23 00:44:45;;;;;;;3.78;1.05;;;17.90;99.90;;;;;;5039453;28;20049;-82
2023/09/23 00:47:13;;;;;;;1.80;1.48;;;17.90;99.90;;;;;;5024088;28;20037;-79
2023/09/23 00:49:44;;;;;;;5.43;1.30;;;17.80;99.90;;;;;;5039472;28;20117;-80
2023/09/23 00:52:13;;;;;;;1.65;0.93;;;17.70;99.90;;;;;;5040608;28;20037;-82
2023/09/23 00:54:40;;;;;;;3.03;1.40;;;17.60;99.90;;;;;;5039679;28;20091;-82
2023/09/23 00:57:07;;;;;;;3.17;1.20;;;17.60;99.90;;;;;;5039950;28;20061;-82
2023/09/23 00:59:36;;;;;;;2.97;1.15;;;17.60;99.90;;;;;;5041338;28;20045;-78
2023/09/23 01:02:03;;;;;;;4.78;1.30;;;17.50;99.90;;;;;;5053907;28;20014;-79
2023/09/23 01:04:29;;;;;;;1.80;1.10;;;17.50;99.90;;;;;;5038208;28;20033;-79
2023/09/23 01:06:56;;;;;;;3.22;1.20;;;17.50;99.90;;;;;;5038614;28;20018;-81
2023/09/23 01:09:23;;;;;;;1.02;0.90;;;17.50;99.90;;;;;;5054552;28;20040;-77
2023/09/23 01:11:52;;;;;;;1.92;1.17;;;17.50;99.90;;;;;;5054591;28;20085;-77
2023/09/23 01:14:22;;;;;;;4.28;1.65;;;17.60;99.90;;;;;;5054340;28;20030;-78
2023/09/23 01:16:51;;;;;;;2.28;1.33;;;17.50;99.90;;;;;;5055285;28;20025;-79
2023/09/23 01:19:18;;;;;;;4.50;1.33;;;17.40;99.90;;;;;;5029284;28;20377;-77
2023/09/23 01:21:48;;;;;;;4.18;1.67;;;17.40;99.90;;;;;;5011912;28;20072;-76
2023/09/23 01:24:15;;;;;;;3.20;1.30;;;17.40;99.90;;;;;;5012531;28;20408;-78
2023/09/23 01:26:43;;;;;;;1.42;0.90;;;17.30;99.90;;;;;;5012784;28;20105;-77
2023/09/23 01:29:09;;;;;;;6.25;1.35;;;17.40;99.90;;;;;;5011876;28;20088;-79
2023/09/23 01:31:35;;;;;;;1.67;1.00;;;17.30;99.90;;;;;;5028894;28;20022;-80
2023/09/23 01:34:01;;;;;;;2.22;1.30;;;17.30;99.90;;;;;;5035737;28;20037;-79
2023/09/23 01:36:26;;;;;;;6.10;2.03;;;17.30;99.90;;;;;;5034229;28;20030;-78
2023/09/23 01:38:52;;;;;;;2.75;1.25;;;17.30;99.90;;;;;;5050018;28;20065;-78
2023/09/23 01:41:18;;;;;;;1.75;1.05;;;17.30;99.90;;;;;;5028684;28;20393;-78
2023/09/23 01:43:44;;;;;;;6.75;1.50;;;17.40;99.90;;;;;;5028845;28;20032;-79
2023/09/23 01:46:10;;;;;;;2.10;1.13;;;17.30;99.90;;;;;;5011563;28;20412;-76
2023/09/23 01:48:38;;;;;;;2.58;1.42;;;17.30;99.90;;;;;;5028339;28;20030;-78
2023/09/23 01:51:06;;;;;;;5.03;1.92;;;17.40;99.90;;;;;;5013294;28;20025;-78
2023/09/23 01:53:32;;;;;;;4.57;1.52;;;17.40;99.90;;;;;;5013032;28;20029;-79
2023/09/23 01:55:57;;;;;;;3.95;2.10;;;17.40;99.90;;;;;;5029129;28;20053;-79
2023/09/23 01:58:23;;;;;;;3.60;2.65;;;17.40;99.90;;;;;;5012471;28;20021;-78
2023/09/23 02:00:54;;;;;;;6.90;1.95;;;17.40;99.90;;;;;;5012672;28;20029;-78
2023/09/23 02:03:22;;;;;;;2.83;1.65;;;17.40;99.90;;;;;;5013183;28;20014;-77
2023/09/23 02:05:48;;;;;;;5.57;2.10;;;17.40;99.90;;;;;;5011543;28;20464;-78
2023/09/23 02:08:15;;;;;;;4.60;2.28;;;17.40;99.90;;;;;;5028352;28;20108;-78
2023/09/23 02:10:44;;;;;;;3.72;2.03;;;17.40;99.90;;;;;;5028462;28;20115;-78
2023/09/23 02:13:10;;;;;;;4.95;1.65;;;17.50;99.90;;;;;;5012827;28;20026;-79
2023/09/23 02:15:36;;;;;;;7.30;2.00;;;17.50;99.90;;;;;;5027789;28;20030;-78
2023/09/23 02:18:04;;;;;;;7.15;2.75;;;17.50;99.90;;;;;;5011447;28;20476;-79
2023/09/23 02:20:30;;;;;;;8.18;3.03;;;17.50;99.90;;;;;;5028084;28;20120;-79
2023/09/23 02:22:55;;;;;;;7.32;3.03;;;17.60;99.90;;;;;;5028434;28;20543;-79
2023/09/23 02:25:24;;;;;;;4.25;2.60;;;17.60;99.90;;;;;;5027551;28;20396;-79
2023/09/23 02:27:51;;;;;;;6.25;2.78;;;17.60;99.90;;;;;;5027798;28;20034;-79
2023/09/23 02:30:16;;;;;;;4.63;3.28;;;17.50;99.90;;;;;;5028156;28;20022;-79
2023/09/23 02:32:44;;;;;;;4.57;2.92;;;17.50;99.90;;;;;;5030686;28;20037;-79
2023/09/23 02:35:12;;;;;;;4.28;2.13;;;17.40;99.90;;;;;;5033417;28;20030;-79
2023/09/23 02:37:48;;;;;;;3.50;2.22;;;17.40;99.90;;;;;;5017715;28;20026;-79
2023/09/23 02:40:17;;;;;;;5.25;1.95;;;17.30;99.90;;;;;;5018893;28;20065;-79
2023/09/23 02:42:47;;;;;;;5.47;2.55;;;17.20;99.90;;;;;;5018055;28;20049;-78
2023/09/23 02:45:15;;;;;;;6.15;2.40;;;17.20;99.90;;;;;;5017868;28;20447;-78
2023/09/23 02:47:43;;;;;;;6.55;1.83;;;17.20;99.90;;;;;;5018247;28;20392;-79
2023/09/23 02:50:10;;;;;;;8.07;2.00;;;17.20;99.90;;;;;;5033002;28;20049;-80
2023/09/23 02:52:38;;;;;;;3.72;1.67;;;17.10;99.90;;;;;;5033027;28;20037;-78
2023/09/23 02:55:07;;;;;;;5.57;1.88;;;17.00;99.90;;;;;;5017199;28;20109;-79
2023/09/23 02:57:36;;;;;;;5.20;1.88;;;17.00;99.90;;;;;;5016107;28;20105;-79
2023/09/23 03:00:13;;;;;;;2.30;1.75;;;17.10;99.90;;;;;;5032499;28;20026;-78
2023/09/23 03:02:38;;;;;;;6.75;1.88;;;17.00;99.90;;;;;;5032498;28;20025;-79
2023/09/23 03:05:07;;;;;;;5.47;2.40;;;16.90;99.90;;;;;;5032917;28;20033;-79
2023/09/23 03:07:33;;;;;;;3.17;1.70;;;16.90;99.90;;;;;;5032537;28;20172;-79
2023/09/23 03:10:01;;;;;;;2.72;1.83;;;16.90;99.90;;;;;;5032275;28;20029;-77
2023/09/23 03:12:29;;;;;;;3.05;1.83;;;16.90;99.90;;;;;;5017912;28;20515;-79
2023/09/23 03:14:56;;;;;;;5.80;1.40;;;16.90;99.90;;;;;;5032406;28;20522;-78
2023/09/23 03:17:22;;;;;;;4.60;0.90;;;16.90;99.90;;;;;;5018594;28;20018;-78
2023/09/23 03:19:51;;;;;;;2.45;0.88;;;16.80;99.90;;;;;;5018192;28;20576;-80
2023/09/23 03:22:21;;;;;;;1.20;1.10;;;16.70;99.90;;;;;;5018584;28;20018;-80
2023/09/23 03:24:48;;;;;;;3.63;0.73;;;16.70;99.90;;;;;;5032694;28;20021;-80
2023/09/23 03:27:14;;;;;;;1.60;0.60;;;16.60;99.90;;;;;;5017935;28;20053;-79
2023/09/23 03:29:40;;;;;;;1.75;0.60;;;16.60;99.90;;;;;;5018377;28;20088;-79
2023/09/23 03:32:07;;;;;;;0.60;0.60;;;16.60;99.90;;;;;;5017832;28;20041;-79
2023/09/23 03:34:34;;;;;;;3.30;0.60;;;16.50;99.90;;;;;;5017591;28;20511;-79
2023/09/23 03:37:00;;;;;;;0.90;0.63;;;16.50;99.90;;;;;;5033305;28;20404;-79
2023/09/23 03:39:26;;;;;;;1.23;0.93;;;16.40;99.90;;;;;;5033631;28;20022;-80
2023/09/23 03:41:52;;;;;;;3.33;0.55;;;16.40;99.90;;;;;;5019119;28;20029;-79
2023/09/23 03:44:18;;;;;;;0.98;0.50;;;16.40;99.90;;;;;;5032596;28;20018;-81
2023/09/23 03:46:46;;;;;;;2.13;0.50;;;16.30;99.90;;;;;;5034733;28;20068;-78
2023/09/23 03:49:12;;;;;;;1.75;0.75;;;16.20;99.90;;;;;;5033218;28;20484;-78
2023/09/23 03:51:39;;;;;;;0.43;0.43;;;16.20;99.90;;;;;;5016915;28;20029;-79
2023/09/23 03:54:07;;;;;;;0.63;0.30;;;16.10;99.90;;;;;;5033024;28;20018;-79
2023/09/23 03:56:35;;;;;;;2.30;0.43;;;16.10;99.90;;;;;;5018905;28;20484;-79
2023/09/23 03:59:05;;;;;;;1.52;0.47;;;16.10;99.90;;;;;;5033322;28;20048;-78
2023/09/23 04:01:32;;;;;;;0.47;0.40;;;16.10;99.90;;;;;;5033000;28;20084;-79
2023/09/23 04:03:57;;;;;;;1.42;0.30;;;16.10;99.90;;;;;;5015984;28;20026;-79
2023/09/23 04:06:23;;;;;;;1.85;0.52;;;16.00;99.90;;;;;;5032145;28;20492;-78
2023/09/23 04:08:49;;;;;;;0.50;0.50;;;16.00;99.90;;;;;;5016496;28;20488;-79
2023/09/23 04:11:18;;;;;;;0.43;0.30;;;15.90;99.90;;;;;;5015188;28;20091;-80
2023/09/23 04:13:46;;;;;;;0.93;0.15;;;15.90;99.90;;;;;;5031051;28;20467;-78
2023/09/23 04:16:13;;;;;;;0.28;0.25;;;15.90;99.90;;;;;;5014535;28;20557;-78
2023/09/23 04:18:40;;;;;;;0.73;0.30;;;15.80;99.90;;;;;;5032137;28;20049;-79
2023/09/23 04:21:06;;;;;;;0.32;0.10;;;15.80;99.90;;;;;;5031499;28;20032;-79
2023/09/23 04:23:32;;;;;;;0.85;0.40;;;15.70;99.90;;;;;;5031266;28;20022;-79
2023/09/23 04:25:57;;;;;;;1.17;0.30;;;15.80;99.90;;;;;;5030689;28;20026;-78
2023/09/23 04:28:23;;;;;;;4.07;0.38;;;15.80;99.90;;;;;;5031031;28;20025;-80
2023/09/23 04:30:55;;;;;;;0.60;0.22;;;15.70;99.90;;;;;;5016196;28;20029;-77
2023/09/23 04:33:22;;;;;;;0.65;0.10;;;15.70;99.90;;;;;;5016058;28;20034;-78
2023/09/23 04:35:48;;;;;;;3.13;0.28;;;15.70;99.90;;;;;;5034239;28;20087;-82
2023/09/23 04:38:15;;;;;;;0.63;0.30;;;15.80;99.90;;;;;;5035352;28;20057;-80
2023/09/23 04:40:41;;;;;;;2.47;0.55;;;15.70;99.90;;;;;;5033180;28;20025;-80
2023/09/23 04:43:10;;;;;;;0.28;0.10;;;15.70;99.90;;;;;;5032745;28;20115;-79
2023/09/23 04:45:37;;;;;;;0.17;0.10;;;15.60;99.90;;;;;;5031306;28;20033;-79
2023/09/23 04:48:06;;;;;;;0.20;0.20;;;15.60;99.90;;;;;;5031870;28;20515;-78
2023/09/23 04:50:31;;;;;;;2.15;0.47;;;15.70;99.90;;;;;;5033571;28;20044;-79
2023/09/23 04:52:59;;;;;;;0.52;0.30;;;15.60;99.90;;;;;;5018542;28;20559;-79
2023/09/23 04:55:25;;;;;;;0.50;0.17;;;15.60;99.90;;;;;;5031661;28;20053;-78
2023/09/23 04:57:51;;;;;;;0.20;0.10;;;15.50;99.90;;;;;;5018065;28;20018;-79
2023/09/23 05:00:18;;;;;;;0.00;0.00;;;15.50;99.90;;;;;;5019201;28;20077;-79
2023/09/23 05:02:46;;;;;;;0.17;0.17;;;15.40;99.90;;;;;;5033983;28;20117;-79
2023/09/23 05:05:11;;;;;;;0.75;0.20;;;15.40;99.90;;;;;;5016240;28;20029;-80
2023/09/23 05:07:37;;;;;;;7.75;0.30;;;15.40;99.90;;;;;;5033076;28;20050;-78
2023/09/23 05:10:07;;;;;;;0.45;0.30;;;15.50;99.90;;;;;;5016113;28;20046;-79
2023/09/23 05:12:33;;;;;;;0.22;0.22;;;15.40;99.90;;;;;;5031328;28;20030;-78
2023/09/23 05:15:00;;;;;;;0.70;0.57;;;15.40;99.90;;;;;;5017020;28;20022;-79
2023/09/23 05:17:27;;;;;;;0.38;0.38;;;15.40;99.90;;;;;;5032716;28;20026;-80
2023/09/23 05:19:53;;;;;;;0.73;0.40;;;15.40;99.90;;;;;;5016130;28;20026;-79
2023/09/23 05:22:19;;;;;;;0.50;0.30;;;15.40;99.90;;;;;;5017557;28;20093;-80
2023/09/23 05:24:50;;;;;;;0.80;0.30;;;15.40;99.90;;;;;;5033084;28;20029;-78
2023/09/23 05:27:16;;;;;;;0.45;0.20;;;15.30;99.90;;;;;;5016021;28;20566;-79
2023/09/23 05:29:44;;;;;;;0.47;0.40;;;15.40;99.90;;;;;;5032403;28;20026;-78
2023/09/23 05:32:10;;;;;;;1.05;0.47;;;15.30;99.90;;;;;;5019068;28;20032;-79
2023/09/23 05:34:39;;;;;;;2.70;0.35;;;15.30;99.90;;;;;;5018900;28;20022;-82
2023/09/23 05:37:06;;;;;;;1.15;0.20;;;16.60;99.90;;;;;;5015934;28;20022;-82
2023/09/23 05:39:34;;;;;;;1.35;0.40;;;17.30;99.90;;;;;;5017361;28;20029;-81
2023/09/23 05:42:01;;;;;;;1.08;0.40;;;17.60;99.90;;;;;;5017337;28;20113;-80
2023/09/23 05:44:27;;;;;;;2.10;0.22;;;18.10;99.90;;;;;;5016688;28;20018;-80
2023/09/23 05:46:53;;;;;;;0.55;0.10;;;18.10;99.90;;;;;;5019796;28;20028;-81
2023/09/23 05:49:18;;;;;;;0.28;0.22;;;17.90;99.90;;;;;;5021987;28;20097;-81
2023/09/23 05:51:45;;;;;;;0.40;0.40;;;17.60;99.90;;;;;;5022494;28;20033;-81
2023/09/23 05:54:11;;;;;;;0.52;0.20;;;17.40;99.90;;;;;;5024245;28;20049;-80
2023/09/23 05:56:37;;;;;;;0.52;0.28;;;17.30;99.90;;;;;;5014070;28;20029;-79
2023/09/23 05:59:05;;;;;;;0.30;0.15;;;17.10;99.90;;;;;;5013453;28;20516;-78
2023/09/23 06:01:31;;;;;;;1.30;0.30;;;17.20;99.90;;;;;;5013984;28;20018;-80
2023/09/23 06:03:58;;;;;;;0.55;0.40;;;17.50;99.90;;;;;;5012248;28;20018;-78
2023/09/23 06:06:23;;;;;;;0.38;0.30;;;17.60;99.90;;;;;;5011908;28;20058;-79
2023/09/23 06:08:50;;;;;;;0.52;0.30;;;17.50;99.90;;;;;;5016081;28;20025;-79
2023/09/23 06:11:16;;;;;;;1.00;0.30;;;17.40;99.90;;;;;;5016426;28;20026;-78
2023/09/23 06:13:42;;;;;;;1.17;0.13;;;17.40;99.90;;;;;;5017046;28;20451;-78
2023/09/23 06:16:08;;;;;;;0.22;0.22;;;17.40;99.90;;;;;;5016699;28;20025;-78
2023/09/23 06:18:33;;;;;;;0.93;0.40;;;17.20;99.90;;;;;;5017385;28;20022;-78
2023/09/23 06:21:00;;;;;;;3.78;0.60;;;17.00;99.90;;;;;;5017854;28;20033;-79
2023/09/23 06:23:26;;;;;;;1.95;0.93;;;17.20;99.90;;;;;;5017926;28;20077;-80
2023/09/23 06:26:04;;;;;;;1.60;1.00;;;17.50;99.90;;;;;;5017725;28;20088;-79
2023/09/23 06:28:30;;;;;;;1.27;0.60;;;17.50;99.90;;;;;;5017649;28;20034;-80
2023/09/23 06:30:55;;;;;;;0.50;0.32;;;17.40;99.90;;;;;;5021036;28;20026;-78
2023/09/23 06:33:21;;;;;;;3.00;0.63;;;17.10;99.90;;;;;;5019668;28;20057;-79
2023/09/23 06:35:48;;;;;;;3.03;0.70;;;16.70;99.90;;;;;;5018708;28;20050;-79
2023/09/23 06:38:13;;;;;;;1.08;0.63;;;16.20;99.90;;;;;;5023946;28;20570;-78
2023/09/23 06:40:39;;;;;;;1.38;0.30;;;16.00;99.90;;;;;;5018910;28;20029;-78
2023/09/23 06:43:05;;;;;;;0.52;0.30;;;15.70;99.90;;;;;;5036352;22;20057;-79
2023/09/23 06:45:31;;;;;;;1.77;0.40;;;15.60;99.90;;;;;;5014966;28;20084;-80
2023/09/23 06:47:56;;;;;;;1.55;0.68;;;15.50;99.90;;;;;;5014668;28;20029;-80
2023/09/23 06:50:22;;;;;;;0.38;0.30;;;15.40;99.90;;;;;;5015977;28;20508;-80
2023/09/23 06:52:48;;;;;;;1.30;0.50;;;15.30;99.90;;;;;;5016092;28;20026;-80
2023/09/23 06:55:13;;;;;;;0.88;0.30;;;15.30;99.90;;;;;;5014317;28;20033;-80
2023/09/23 06:57:39;;;;;;;3.08;0.50;;;15.30;99.90;;;;;;5014520;28;20037;-79
2023/09/23 07:00:07;;;;;;;1.65;0.43;;;15.40;99.90;;;;;;5015732;28;20034;-80
2023/09/23 07:02:33;;;;;;;1.52;0.73;;;15.40;99.90;;;;;;5014548;28;20022;-81
2023/09/23 07:04:59;;;;;;;4.53;1.00;;;15.30;99.90;;;;;;5014036;28;20030;-80
2023/09/23 07:07:25;;;;;;;0.82;0.40;;;15.30;99.90;;;;;;5014581;28;20129;-80
2023/09/23 07:09:51;;;;;;;12.27;5.25;;;15.30;99.90;;;;;;5014398;28;20124;-80
2023/09/23 07:12:16;;;;;;;9.63;5.07;;;15.10;99.90;;;;;;5014402;28;20411;-80
2023/09/23 07:14:42;;;;;;;1.40;1.30;;;15.10;99.90;;;;;;5015280;28;20063;-80
2023/09/23 07:17:08;;;;;;;1.35;0.85;;;15.00;99.90;;;;;;5014110;28;20033;-80
2023/09/23 07:19:34;;;;;;;0.85;0.40;;;15.00;99.90;;;;;;5015350;28;20021;-80
2023/09/23 07:22:00;;;;;;;0.57;0.50;;;15.00;99.90;;;;;;5014112;28;20018;-81
2023/09/23 07:24:26;;;;;;;3.60;0.85;;;14.90;99.90;;;;;;5014956;28;20029;-80
2023/09/23 07:26:58;;;;;;;2.15;1.40;;;14.90;99.90;;;;;;5014282;28;20476;-80
2023/09/23 07:29:24;;;;;;;4.72;1.83;;;14.90;99.90;;;;;;5014426;28;20028;-80
2023/09/23 07:31:52;;;;;;;2.40;2.10;;;15.00;99.90;;;;;;5015212;28;20042;-80
2023/09/23 07:34:17;;;;;;;2.15;1.42;;;15.10;99.90;;;;;;5015167;28;20072;-80
2023/09/23 07:36:43;;;;;;;1.45;1.10;;;15.10;99.90;;;;;;5016095;28;20425;-81
2023/09/23 07:39:10;;;;;;;1.33;1.08;;;15.10;99.90;;;;;;5014175;28;20034;-80
2023/09/23 07:41:36;;;;;;;1.00;0.47;;;15.10;99.90;;;;;;5015173;28;20033;-80
2023/09/23 07:44:02;;;;;;;0.82;0.80;;;15.10;99.90;;;;;;5015008;28;20033;-80
2023/09/23 07:46:28;;;;;;;1.75;0.60;;;15.20;99.90;;;;;;5013757;28;20026;-80
2023/09/23 07:48:54;;;;;;;0.63;0.30;;;15.10;99.90;;;;;;5014993;28;20388;-80
2023/09/23 07:51:19;;;;;;;0.60;0.45;;;15.20;99.90;;;;;;5015403;28;20400;-82
2023/09/23 07:53:45;;;;;;;2.10;0.60;;;15.20;99.90;;;;;;5015507;28;20480;-80
2023/09/23 07:56:10;;;;;;;0.60;0.60;;;15.20;99.90;;;;;;5013895;28;20029;-80
2023/09/23 07:58:36;;;;;;;1.20;0.70;;;15.30;99.90;;;;;;5013472;28;20555;-80
2023/09/23 08:01:03;;;;;;;0.57;0.40;;;15.30;99.90;;;;;;5013240;28;20029;-80
2023/09/23 08:03:29;;;;;;;0.47;0.40;;;15.20;99.90;;;;;;5014591;28;20049;-80
2023/09/23 08:05:55;;;;;;;0.70;0.40;;;15.20;99.90;;;;;;5013100;28;20029;-77
2023/09/23 08:08:20;;;;;;;2.22;0.80;;;15.20;99.90;;;;;;5013728;28;20503;-78
2023/09/23 08:10:49;;;;;;;0.98;0.32;;;15.20;99.90;;;;;;5013166;28;20029;-78
2023/09/23 08:13:15;;;;;;;0.35;0.28;;;15.30;99.90;;;;;;5014353;28;20025;-78
2023/09/23 08:15:41;;;;;;;0.93;0.60;;;15.40;99.90;;;;;;5012844;28;20021;-78
2023/09/23 08:18:07;;;;;;;1.60;0.80;;;15.50;99.90;;;;;;5013620;28;20025;-79
2023/09/23 08:20:32;;;;;;;1.63;0.95;;;15.50;99.90;;;;;;5013287;28;20049;-78
2023/09/23 08:22:58;;;;;;;1.33;0.90;;;15.60;99.90;;;;;;5013124;28;20472;-78
2023/09/23 08:25:24;;;;;;;2.00;0.50;;;15.60;99.90;;;;;;5013477;28;20033;-77
2023/09/23 08:27:50;;;;;;;0.85;0.70;;;15.70;99.90;;;;;;5013032;28;20485;-78
2023/09/23 08:30:17;;;;;;;1.30;0.50;;;15.70;99.90;;;;;;5012170;28;20038;-78
2023/09/23 08:32:42;;;;;;;0.20;0.20;;;15.70;99.90;;;;;;5013587;28;20026;-79
2023/09/23 08:35:08;;;;;;;2.00;0.45;;;15.70;99.90;;;;;;5012335;28;20029;-83
2023/09/23 08:37:35;;;;;;;0.47;0.47;;;15.70;99.90;;;;;;5014077;28;20053;-81
2023/09/23 08:40:01;;;;;;;3.25;0.32;;;15.70;99.90;;;;;;5014108;28;20026;-82
2023/09/23 08:42:27;;;;;;;0.50;0.50;;;15.70;99.90;;;;;;5012940;28;20037;-81
2023/09/23 08:44:54;;;;;;;0.57;0.32;;;15.70;99.90;;;;;;5013983;28;20022;-79
2023/09/23 08:47:20;;;;;;;3.42;0.70;;;15.70;99.90;;;;;;5015510;28;20022;-79
2023/09/23 08:49:50;;;;;;;0.40;0.40;;;15.60;99.90;;;;;;5013992;28;20044;-80
2023/09/23 08:52:19;;;;;;;1.48;1.00;;;15.60;99.90;;;;;;5012838;28;20107;-81
2023/09/23 08:54:49;;;;;;;1.40;1.30;;;15.60;99.90;;;;;;5012494;28;20029;-81
2023/09/23 08:57:20;;;;;;;5.30;3.35;;;15.70;99.90;;;;;;5012756;28;20026;-80
2023/09/23 08:59:46;;;;;;;5.85;2.72;;;15.70;99.90;;;;;;5013991;28;20017;-86
2023/09/23 09:02:22;;;;;;;2.22;1.30;;;15.80;99.90;;;;;;5013200;28;20026;-81
2023/09/23 09:04:51;;;;;;;3.42;0.40;;;15.90;99.90;;;;;;5015287;28;20026;-80
2023/09/23 09:07:16;;;;;;;1.23;0.65;;;15.90;99.90;;;;;;5012884;28;20036;-78
2023/09/23 09:09:42;;;;;;;2.75;0.85;;;15.90;99.90;;;;;;5014550;28;20030;-86
2023/09/23 09:12:09;;;;;;;1.23;0.60;;;15.80;99.90;;;;;;5014637;28;20518;-79
2023/09/23 09:14:35;;;;;;;0.70;0.60;;;15.90;99.90;;;;;;5014384;28;20026;-84
2023/09/23 09:17:00;;;;;;;0.55;0.30;;;15.80;99.90;;;;;;5016622;28;20022;-82
2023/09/23 09:19:27;;;;;;;0.30;0.20;;;15.90;99.90;;;;;;5016833;28;20431;-81
2023/09/23 09:21:54;;;;;;;1.90;1.00;;;15.80;99.90;;;;;;5011925;28;20030;-82
2023/09/23 09:24:19;;;;;;;1.65;0.38;;;15.90;99.90;;;;;;5012663;28;20510;-83
2023/09/23 09:26:45;;;;;;;1.77;0.80;;;15.90;99.90;;;;;;5012840;28;20116;-82
2023/09/23 09:29:12;;;;;;;6.75;2.08;;;15.90;99.90;;;;;;5018107;28;20025;-83
2023/09/23 09:31:41;;;;;;;2.50;0.98;;;16.00;99.90;;;;;;5016320;28;20495;-78
2023/09/23 09:34:11;;;;;;;3.33;1.08;;;16.00;99.90;;;;;;5014483;28;20033;-79
2023/09/23 09:36:40;;;;;;;3.05;1.63;;;15.90;99.90;;;;;;5015798;28;20025;-87
2023/09/23 09:39:10;;;;;;;1.15;1.00;;;16.10;99.90;;;;;;5015566;28;20113;-85
2023/09/23 09:41:45;;;;;;;3.08;1.65;;;15.90;99.90;;;;;;5015622;28;20167;-81
2023/09/23 09:44:16;;;;;;;2.90;0.82;;;15.80;99.90;;;;;;5016031;28;20168;-80
2023/09/23 09:46:43;;;;;;;0.60;0.60;;;15.80;99.90;;;;;;5014859;28;20048;-80
2023/09/23 09:49:10;;;;;;;1.80;0.82;;;15.80;99.90;;;;;;5014368;28;20049;-79
2023/09/23 09:51:36;;;;;;;0.70;0.40;;;15.70;99.90;;;;;;5015637;28;20032;-80
2023/09/23 09:54:04;;;;;;;2.15;1.27;;;15.70;99.90;;;;;;5015849;28;20025;-80
2023/09/23 09:56:30;;;;;;;2.10;0.95;;;15.70;99.90;;;;;;5014230;28;20077;-79
2023/09/23 09:58:58;;;;;;;0.98;0.63;;;15.70;99.90;;;;;;5012687;28;20025;-80
2023/09/23 10:01:24;;;;;;;1.63;0.90;;;15.80;99.90;;;;;;5014887;28;20057;-80
2023/09/23 10:03:53;;;;;;;4.45;1.45;;;15.70;99.90;;;;;;5013352;28;20048;-80
2023/09/23 10:06:19;;;;;;;11.18;4.45;;;15.70;99.90;;;;;;5015901;28;20076;-79
2023/09/23 10:08:48;;;;;;;20.08;6.50;;;15.70;99.90;;;;;;5014238;28;20492;-80
2023/09/23 10:11:15;;;;;;;18.98;6.82;;;15.60;99.90;;;;;;5013606;28;20026;-79
2023/09/23 10:13:42;;;;;;;7.10;3.05;;;15.70;99.90;;;;;;5014685;28;20041;-80
2023/09/23 10:16:13;;;;;;;5.03;1.73;;;15.70;99.90;;;;;;5014999;28;20104;-80
2023/09/23 10:18:40;;;;;;;1.35;0.90;;;15.80;99.90;;;;;;5014097;28;20026;-80
2023/09/23 10:21:07;;;;;;;1.95;0.98;;;15.90;99.90;;;;;;5013541;28;20054;-80
2023/09/23 10:23:39;;;;;;;1.92;1.30;;;16.00;99.90;;;;;;5013876;28;20145;-80
2023/09/23 10:26:16;;;;;;;1.73;0.70;;;16.00;99.90;;;;;;5015163;28;20026;-79
2023/09/23 10:28:43;;;;;;;0.77;0.57;;;16.10;99.90;;;;;;5014724;28;20463;-80
2023/09/23 10:31:10;;;;;;;0.90;0.50;;;15.90;99.90;;;;;;5013591;28;20080;-80
2023/09/23 10:33:37;;;;;;;0.30;0.30;;;16.00;99.90;;;;;;5013341;28;20030;-81
2023/09/23 10:36:04;;;;;;;0.63;0.35;;;16.00;99.90;;;;;;5014357;28;20081;-81
2023/09/23 10:38:35;;;;;;;2.25;0.22;;;16.00;99.90;;;;;;5013591;28;20022;-79
2023/09/23 10:41:01;;;;;;;0.82;0.40;;;16.00;99.90;;;;;;5015370;28;20049;-80
2023/09/23 10:43:27;;;;;;;1.65;0.43;;;16.00;99.90;;;;;;5013699;28;20053;-79
2023/09/23 10:45:58;;;;;;;0.85;0.57;;;16.20;99.90;;;;;;5012510;28;20125;-79
2023/09/23 10:48:25;;;;;;;1.98;0.47;;;16.10;99.90;;;;;;5013425;28;20022;-80
2023/09/23 10:50:51;;;;;;;0.50;0.50;;;16.20;99.90;;;;;;5015140;28;20492;-80
2023/09/23 10:53:30;;;;;;;0.85;0.55;;;16.30;99.90;;;;;;5015342;28;20045;-80
2023/09/23 10:55:57;;;;;;;1.25;0.40;;;16.30;99.90;;;;;;5017668;28;20044;-80
2023/09/23 10:58:23;;;;;;;0.57;0.47;;;16.40;99.90;;;;;;5017431;28;20022;-80
2023/09/23 11:00:51;;;;;;;1.42;0.50;;;16.40;99.90;;;;;;5018629;28;20022;-81
2023/09/23 11:03:19;;;;;;;1.75;0.43;;;16.30;99.90;;;;;;5017907;28;20026;-81
2023/09/23 11:05:46;;;;;;;0.95;0.60;;;16.30;99.90;;;;;;5017169;28;20095;-80
2023/09/23 11:08:14;;;;;;;0.82;0.45;;;16.30;99.90;;;;;;5017051;28;20037;-79
2023/09/23 11:10:41;;;;;;;0.40;0.40;;;16.40;99.90;;;;;;5016660;28;20025;-80
2023/09/23 11:13:08;;;;;;;0.73;0.50;;;16.40;99.90;;;;;;5017224;28;20033;-80
2023/09/23 11:15:36;;;;;;;0.70;0.38;;;16.50;99.90;;;;;;5016148;28;20045;-81
2023/09/23 11:18:02;;;;;;;0.25;0.22;;;16.40;99.90;;;;;;5017075;28;20048;-80
2023/09/23 11:20:33;;;;;;;1.08;0.52;;;16.30;99.90;;;;;;5017848;28;20488;-80
2023/09/23 11:23:03;;;;;;;0.85;0.63;;;16.30;99.90;;;;;;5017334;28;20092;-80
2023/09/23 11:25:29;;;;;;;0.75;0.52;;;16.30;99.90;;;;;;5016836;28;20022;-80
2023/09/23 11:27:58;;;;;;;5.95;2.42;;;16.30;99.90;;;;;;5018775;28;20412;-81
2023/09/23 11:30:24;;;;;;;7.07;2.50;;;16.40;99.90;;;;;;5017734;28;20071;-80
2023/09/23 11:32:51;;;;;;;0.82;0.82;;;16.40;99.90;;;;;;5017127;28;20073;-79
2023/09/23 11:35:18;;;;;;;1.73;1.35;;;16.50;99.90;;;;;;5016524;28;20026;-81
2023/09/23 11:37:44;;;;;;;0.70;0.70;;;16.60;99.90;;;;;;5018783;28;20070;-80
2023/09/23 11:40:12;;;;;;;0.50;0.50;;;16.50;99.90;;;;;;5016873;28;20026;-81
2023/09/23 11:42:38;;;;;;;0.50;0.50;;;16.60;99.90;;;;;;5014809;28;20105;-79
2023/09/23 11:45:04;;;;;;;0.95;0.30;;;16.70;99.90;;;;;;5014576;28;20061;-79
2023/09/23 11:47:30;;;;;;;0.38;0.38;;;16.80;99.90;;;;;;5014876;28;20109;-79
2023/09/23 11:49:55;;;;;;;0.20;0.20;;;16.80;99.90;;;;;;5013503;28;20504;-79
2023/09/23 11:52:22;;;;;;;1.20;0.40;;;16.90;99.90;;;;;;5013503;28;20076;-79
2023/09/23 11:54:47;;;;;;;0.65;0.45;;;16.70;99.90;;;;;;5012982;28;20054;-79
2023/09/23 11:57:13;;;;;;;0.30;0.30;;;16.80;99.90;;;;;;5013371;28;20065;-79
2023/09/23 11:59:40;;;;;;;0.65;0.32;;;16.70;99.90;;;;;;5013498;28;20022;-80
2023/09/23 12:02:08;;;;;;;2.40;0.38;;;16.70;99.90;;;;;;5014982;28;20048;-80
2023/09/23 12:04:34;;;;;;;0.20;0.15;;;16.80;99.90;;;;;;5012603;28;20117;-80
2023/09/23 12:07:00;;;;;;;0.30;0.20;;;16.60;99.90;;;;;;5014256;28;20057;-80
2023/09/23 12:09:26;;;;;;;0.68;0.30;;;16.50;99.90;;;;;;5014353;28;20041;-80
2023/09/23 12:11:51;;;;;;;1.13;0.20;;;16.30;99.90;;;;;;5013020;28;20025;-79
2023/09/23 12:14:19;;;;;;;0.30;0.30;;;16.50;99.90;;;;;;5012756;28;20026;-79
2023/09/23 12:16:45;;;;;;;0.20;0.20;;;16.50;99.90;;;;;;5013471;28;20030;-80
2023/09/23 12:19:11;;;;;;;0.47;0.35;;;16.50;99.90;;;;;;5014395;28;20018;-79
2023/09/23 12:21:37;;;;;;;0.20;0.20;;;16.60;99.90;;;;;;5013985;28;20089;-79
2023/09/23 12:24:03;;;;;;;0.40;0.20;;;16.60;99.90;;;;;;5013014;28;20169;-80
2023/09/23 12:26:31;;;;;;;0.93;0.30;;;16.60;99.90;;;;;;5014754;28;20025;-78
2023/09/23 12:28:56;;;;;;;0.93;0.93;;;16.60;99.90;;;;;;5013703;28;20400;-79
2023/09/23 12:31:24;;;;;;;2.92;0.50;;;16.80;99.90;;;;;;5014216;28;20488;-80
2023/09/23 12:33:50;;;;;;;0.60;0.40;;;16.70;99.90;;;;;;5021110;28;20420;-80
2023/09/23 12:36:16;;;;;;;0.65;0.40;;;16.60;99.90;;;;;;5022398;28;20026;-80
2023/09/23 12:38:42;;;;;;;1.58;0.40;;;16.70;99.90;;;;;;5018129;28;20021;-80
2023/09/23 12:41:08;;;;;;;0.95;0.40;;;16.60;99.90;;;;;;5018262;28;20029;-80
2023/09/23 12:43:33;;;;;;;0.40;0.15;;;16.70;99.90;;;;;;5016210;28;20435;-80